createdAt,value
2023-12-02T00:00:04.543Z,1025.18
2023-12-02T00:00:49.507Z,1025.18
2023-12-02T00:01:34.693Z,1025.18
2023-12-02T00:02:19.483Z,1025.18
2023-12-02T00:03:04.737Z,1025.18
2023-12-02T00:03:49.934Z,1025.18
2023-12-02T00:04:36.872Z,1025.18
2023-12-02T00:05:20.309Z,885.06
2023-12-02T00:06:05.358Z,885.06
2023-12-02T00:06:50.263Z,885.06
2023-12-02T00:07:35.346Z,885.06
2023-12-02T00:08:20.027Z,885.06
2023-12-02T00:09:05.012Z,885.06
2023-12-02T00:09:50.427Z,885.06
2023-12-02T00:10:35.304Z,885.06
2023-12-02T00:11:20.451Z,885.06
2023-12-02T00:12:05.223Z,885.06
2023-12-02T00:12:52.268Z,885.06
2023-12-02T00:13:35.501Z,838.03
2023-12-02T00:14:20.371Z,838.03
2023-12-02T00:15:05.755Z,838.03
2023-12-02T00:15:51.188Z,838.03
2023-12-02T00:16:37.659Z,838.03
2023-12-02T00:17:20.939Z,838.03
2023-12-02T00:18:05.708Z,838.03
2023-12-02T00:18:51.413Z,838.03
2023-12-02T00:19:36.325Z,838.03
2023-12-02T00:20:20.859Z,838.03
2023-12-02T00:21:06.121Z,838.03
2023-12-02T00:21:51.272Z,838.03
2023-12-02T00:22:36.013Z,838.03
2023-12-02T00:23:23.016Z,838.03
2023-12-02T00:24:06.002Z,838.03
2023-12-02T00:24:51.779Z,878.64
2023-12-02T00:25:38.167Z,878.64
2023-12-02T00:26:21.868Z,878.64
2023-12-02T00:27:06.352Z,878.64
2023-12-02T00:27:51.451Z,878.64
2023-12-02T00:28:36.305Z,878.64
2023-12-02T00:29:21.497Z,878.64
2023-12-02T00:30:06.374Z,878.64
2023-12-02T00:30:51.804Z,878.64
2023-12-02T00:31:36.979Z,878.64
2023-12-02T00:32:28.673Z,878.64
2023-12-02T00:33:07.078Z,878.64
2023-12-02T00:33:51.838Z,878.64
2023-12-02T00:34:36.677Z,878.64
2023-12-02T00:35:22.834Z,878.64
2023-12-02T00:36:07.261Z,878.64
2023-12-02T00:36:52.240Z,878.64
2023-12-02T00:37:40.363Z,878.64
2023-12-02T00:38:22.063Z,878.64
2023-12-02T00:39:07.467Z,878.64
2023-12-02T00:39:51.909Z,958.50
2023-12-02T00:40:37.035Z,906.73
2023-12-02T00:41:23.355Z,906.73
2023-12-02T00:42:07.853Z,906.73
2023-12-02T00:42:54.176Z,906.73
2023-12-02T00:43:37.361Z,906.73
2023-12-02T00:44:22.614Z,906.73
2023-12-02T00:45:08.270Z,906.73
2023-12-02T00:45:52.218Z,915.22
2023-12-02T00:46:37.856Z,915.22
2023-12-02T00:47:22.587Z,915.22
2023-12-02T00:48:08.949Z,915.22
2023-12-02T00:48:54.265Z,915.22
2023-12-02T00:49:39.041Z,915.22
2023-12-02T00:50:23.850Z,915.22
2023-12-02T00:51:08.896Z,915.22
2023-12-02T00:51:54.352Z,915.22
2023-12-02T00:52:39.080Z,915.22
2023-12-02T00:53:23.190Z,950.36
2023-12-02T00:54:07.828Z,988.55
2023-12-02T00:54:53.008Z,1029.01
2023-12-02T00:55:38.294Z,1028.80
2023-12-02T00:56:23.121Z,1022.18
2023-12-02T00:57:08.201Z,1012.03
2023-12-02T00:57:53.302Z,998.92
2023-12-02T00:58:41.451Z,1020.29
2023-12-02T00:59:23.485Z,983.44
2023-12-02T01:00:08.849Z,1018.60
2023-12-02T01:00:53.319Z,998.65
2023-12-02T01:01:38.639Z,968.58
2023-12-02T01:02:23.663Z,960.07
2023-12-02T01:03:11.114Z,960.07
2023-12-02T01:03:53.706Z,960.07
2023-12-02T01:04:39.359Z,924.82
2023-12-02T01:05:27.216Z,924.82
2023-12-02T01:06:10.484Z,924.82
2023-12-02T01:06:53.996Z,924.82
2023-12-02T01:07:38.813Z,1015.78
2023-12-02T01:08:24.007Z,1027.86
2023-12-02T01:09:08.888Z,1025.97
2023-12-02T01:09:54.000Z,1025.97
2023-12-02T01:10:39.487Z,1023.30
2023-12-02T01:11:24.593Z,1021.90
2023-12-02T01:12:09.683Z,987.63
2023-12-02T01:12:54.519Z,980.28
2023-12-02T01:13:39.241Z,1006.96
2023-12-02T01:14:24.219Z,977.07
2023-12-02T01:15:09.421Z,981.20
2023-12-02T01:15:54.424Z,983.04
2023-12-02T01:16:39.472Z,985.79
2023-12-02T01:17:25.134Z,984.87
2023-12-02T01:18:09.493Z,987.08
2023-12-02T01:18:55.191Z,988.55
2023-12-02T01:19:40.097Z,947.72
2023-12-02T01:20:24.599Z,978.89
2023-12-02T01:21:09.858Z,965.64
2023-12-02T01:21:55.028Z,989.47
2023-12-02T01:22:40.205Z,989.47
2023-12-02T01:23:24.929Z,981.62
2023-12-02T01:24:10.070Z,943.30
2023-12-02T01:24:55.103Z,980.71
2023-12-02T01:25:40.311Z,987.99
2023-12-02T01:26:25.064Z,977.60
2023-12-02T01:27:10.036Z,979.80
2023-12-02T01:27:55.292Z,985.26
2023-12-02T01:28:40.491Z,929.13
2023-12-02T01:29:25.369Z,977.98
2023-12-02T01:30:10.474Z,971.60
2023-12-02T01:30:55.279Z,986.17
2023-12-02T01:31:40.363Z,945.95
2023-12-02T01:32:27.039Z,945.95
2023-12-02T01:33:10.741Z,945.95
2023-12-02T01:33:56.903Z,945.95
2023-12-02T01:34:40.567Z,945.95
2023-12-02T01:35:25.634Z,910.98
2023-12-02T01:36:10.956Z,972.19
2023-12-02T01:36:55.890Z,915.22
2023-12-02T01:37:40.913Z,972.19
2023-12-02T01:38:25.784Z,970.69
2023-12-02T01:39:10.958Z,976.16
2023-12-02T01:39:56.296Z,964.75
2023-12-02T01:40:41.312Z,995.77
2023-12-02T01:41:26.469Z,1012.56
2023-12-02T01:42:11.380Z,986.71
2023-12-02T01:42:56.236Z,1009.76
2023-12-02T01:43:41.197Z,1012.56
2023-12-02T01:44:26.424Z,1009.21
2023-12-02T01:45:11.287Z,1018.40
2023-12-02T01:45:56.459Z,1029.62
2023-12-02T01:46:41.411Z,1018.55
2023-12-02T01:47:26.521Z,1019.35
2023-12-02T01:48:11.631Z,1021.97
2023-12-02T01:48:56.543Z,1034.52
2023-12-02T01:49:41.500Z,1046.93
2023-12-02T01:50:26.757Z,1041.88
2023-12-02T01:51:12.064Z,1051.60
2023-12-02T01:51:57.157Z,1041.24
2023-12-02T01:52:41.748Z,1037.40
2023-12-02T01:53:27.033Z,1049.83
2023-12-02T01:54:12.217Z,1071.04
2023-12-02T01:54:56.940Z,1032.60
2023-12-02T01:55:41.981Z,1067.60
2023-12-02T01:56:27.563Z,1060.49
2023-12-02T01:57:12.428Z,998.56
2023-12-02T01:57:57.084Z,1028.06
2023-12-02T01:58:42.398Z,1041.31
2023-12-02T01:59:27.413Z,1031.64
2023-12-02T02:00:12.312Z,1053.01
2023-12-02T02:00:57.323Z,1049.20
2023-12-02T02:01:42.676Z,1041.88
2023-12-02T02:02:27.723Z,1049.66
2023-12-02T02:03:12.847Z,1065.22
2023-12-02T02:03:57.778Z,1051.06
2023-12-02T02:04:42.689Z,1054.96
2023-12-02T02:05:28.195Z,1054.96
2023-12-02T02:06:12.912Z,1051.06
2023-12-02T02:06:57.788Z,1041.11
2023-12-02T02:07:43.380Z,1044.02
2023-12-02T02:08:28.151Z,1027.79
2023-12-02T02:09:12.947Z,1028.06
2023-12-02T02:09:58.066Z,1039.32
2023-12-02T02:10:42.912Z,1048.86
2023-12-02T02:11:28.377Z,1037.24
2023-12-02T02:12:13.353Z,988.55
2023-12-02T02:12:58.146Z,1005.45
2023-12-02T02:13:43.170Z,1021.40
2023-12-02T02:14:28.680Z,1020.45
2023-12-02T02:15:13.283Z,991.10
2023-12-02T02:15:58.426Z,1028.66
2023-12-02T02:16:43.147Z,1006.39
2023-12-02T02:17:29.036Z,1020.29
2023-12-02T02:18:13.653Z,978.44
2023-12-02T02:18:58.823Z,977.52
2023-12-02T02:19:43.801Z,970.69
2023-12-02T02:20:29.051Z,970.69
2023-12-02T02:21:14.129Z,970.69
2023-12-02T02:21:58.750Z,898.15
2023-12-02T02:22:43.486Z,906.76
2023-12-02T02:23:28.814Z,309.00
2023-12-02T02:24:14.061Z,1030.69
2023-12-02T02:24:58.893Z,206.00
2023-12-02T02:25:44.003Z,517.99
2023-12-02T02:26:28.974Z,134.00
2023-12-02T02:27:13.981Z,165.00
2023-12-02T02:27:58.813Z,195.00
2023-12-02T02:28:44.559Z,289.00
2023-12-02T02:29:29.230Z,1084.13
2023-12-02T02:30:14.230Z,1002.30
2023-12-02T02:30:59.132Z,977.52
2023-12-02T02:31:44.392Z,977.52
2023-12-02T02:32:29.484Z,977.52
2023-12-02T02:33:14.800Z,977.52
2023-12-02T02:33:59.921Z,977.52
2023-12-02T02:34:44.715Z,977.52
2023-12-02T02:35:29.474Z,947.84
2023-12-02T02:36:15.084Z,958.85
2023-12-02T02:36:59.449Z,962.27
2023-12-02T02:37:44.816Z,910.98
2023-12-02T02:38:29.646Z,952.35
2023-12-02T02:39:14.781Z,950.55
2023-12-02T02:39:59.758Z,957.76
2023-12-02T02:40:44.938Z,955.05
2023-12-02T02:41:29.844Z,945.11
2023-12-02T02:42:15.110Z,945.11
2023-12-02T02:43:00.220Z,945.11
2023-12-02T02:43:45.642Z,945.11
2023-12-02T02:44:30.230Z,945.11
2023-12-02T02:45:15.431Z,945.11
2023-12-02T02:46:00.974Z,945.11
2023-12-02T02:46:45.372Z,945.11
2023-12-02T02:47:30.497Z,945.11
2023-12-02T02:48:17.077Z,945.11
2023-12-02T02:49:01.065Z,945.11
2023-12-02T02:49:45.494Z,945.11
2023-12-02T02:50:30.173Z,878.86
2023-12-02T02:51:15.457Z,878.86
2023-12-02T02:52:00.618Z,878.86
2023-12-02T02:52:47.381Z,878.86
2023-12-02T02:53:30.495Z,940.38
2023-12-02T02:54:15.530Z,960.47
2023-12-02T02:55:00.670Z,957.76
2023-12-02T02:55:45.729Z,944.22
2023-12-02T02:56:31.114Z,944.22
2023-12-02T02:57:17.601Z,944.22
2023-12-02T02:58:01.191Z,944.22
2023-12-02T02:58:46.144Z,944.22
2023-12-02T02:59:31.184Z,944.22
2023-12-02T03:00:16.722Z,944.22
2023-12-02T03:01:01.303Z,944.22
2023-12-02T03:01:46.528Z,944.22
2023-12-02T03:02:31.373Z,944.22
2023-12-02T03:03:16.562Z,944.22
2023-12-02T03:04:01.119Z,944.22
2023-12-02T03:04:46.494Z,944.22
2023-12-02T03:05:31.580Z,944.22
2023-12-02T03:06:16.822Z,944.22
2023-12-02T03:07:01.784Z,944.22
2023-12-02T03:07:46.546Z,931.83
2023-12-02T03:08:31.652Z,948.68
2023-12-02T03:09:16.300Z,903.32
2023-12-02T03:10:01.687Z,916.22
2023-12-02T03:10:46.850Z,901.60
2023-12-02T03:11:32.132Z,913.64
2023-12-02T03:12:17.311Z,896.56
2023-12-02T03:13:03.653Z,896.56
2023-12-02T03:13:51.224Z,896.56
2023-12-02T03:14:32.638Z,896.56
2023-12-02T03:15:19.096Z,896.56
2023-12-02T03:16:02.509Z,896.56
2023-12-02T03:16:47.774Z,896.56
2023-12-02T03:17:32.177Z,896.56
2023-12-02T03:18:17.197Z,933.60
2023-12-02T03:19:02.425Z,933.60
2023-12-02T03:19:47.226Z,905.04
2023-12-02T03:20:32.247Z,810.82
2023-12-02T03:21:19.898Z,810.82
2023-12-02T03:22:02.571Z,810.82
2023-12-02T03:22:47.940Z,810.82
2023-12-02T03:23:32.843Z,810.82
2023-12-02T03:24:17.735Z,810.82
2023-12-02T03:25:02.984Z,810.82
2023-12-02T03:25:48.011Z,810.82
2023-12-02T03:26:34.454Z,810.82
2023-12-02T03:27:17.902Z,810.18
2023-12-02T03:28:03.769Z,810.18
2023-12-02T03:28:48.823Z,810.18
2023-12-02T03:29:34.758Z,810.18
2023-12-02T03:30:19.336Z,810.18
2023-12-02T03:31:03.584Z,810.18
2023-12-02T03:31:48.537Z,810.18
2023-12-02T03:32:34.626Z,810.18
2023-12-02T03:33:18.607Z,920.36
2023-12-02T03:34:03.719Z,905.04
2023-12-02T03:34:48.676Z,928.30
2023-12-02T03:35:33.621Z,949.58
2023-12-02T03:36:18.616Z,1003.27
2023-12-02T03:37:03.588Z,1003.27
2023-12-02T03:37:48.843Z,1003.27
2023-12-02T03:38:33.604Z,918.60
2023-12-02T03:39:19.378Z,931.83
2023-12-02T03:40:05.238Z,937.08
2023-12-02T03:40:48.861Z,950.55
2023-12-02T03:41:33.934Z,944.23
2023-12-02T03:42:18.804Z,944.23
2023-12-02T03:43:03.833Z,970.17
2023-12-02T03:43:55.426Z,967.42
2023-12-02T03:44:34.030Z,962.82
2023-12-02T03:45:19.334Z,1100.19
2023-12-02T03:46:04.397Z,1103.71
2023-12-02T03:46:49.199Z,1066.21
2023-12-02T03:47:34.681Z,1071.18
2023-12-02T03:48:19.221Z,1064.59
2023-12-02T03:49:04.450Z,1053.34
2023-12-02T03:49:49.587Z,1061.27
2023-12-02T03:50:34.683Z,1034.34
2023-12-02T03:51:19.507Z,1034.53
2023-12-02T03:52:04.688Z,994.17
2023-12-02T03:52:49.737Z,974.30
2023-12-02T03:53:35.128Z,1021.75
2023-12-02T03:54:20.019Z,1009.54
2023-12-02T03:55:04.734Z,1026.59
2023-12-02T03:55:49.978Z,960.99
2023-12-02T03:56:34.597Z,949.64
2023-12-02T03:57:19.870Z,939.76
2023-12-02T03:58:04.983Z,923.01
2023-12-02T03:58:51.072Z,923.01
2023-12-02T03:59:35.709Z,923.01
2023-12-02T04:00:20.719Z,923.01
2023-12-02T04:01:06.921Z,923.01
2023-12-02T04:01:50.427Z,923.01
2023-12-02T04:02:35.794Z,923.01
2023-12-02T04:03:22.197Z,923.01
2023-12-02T04:04:05.488Z,923.01
2023-12-02T04:04:52.183Z,923.01
2023-12-02T04:05:35.669Z,923.01
2023-12-02T04:06:20.688Z,1027.41
2023-12-02T04:07:05.881Z,942.43
2023-12-02T04:07:50.765Z,1019.81
2023-12-02T04:08:35.719Z,1038.83
2023-12-02T04:09:20.851Z,1037.46
2023-12-02T04:10:05.703Z,1028.66
2023-12-02T04:10:50.740Z,1047.67
2023-12-02T04:11:36.424Z,1049.64
2023-12-02T04:12:20.995Z,1044.07
2023-12-02T04:13:06.095Z,1050.63
2023-12-02T04:13:51.375Z,1054.35
2023-12-02T04:14:36.101Z,1052.38
2023-12-02T04:15:21.316Z,1031.56
2023-12-02T04:16:06.091Z,1048.00
2023-12-02T04:16:51.303Z,1027.66
2023-12-02T04:17:36.498Z,1031.43
2023-12-02T04:18:21.713Z,1044.31
2023-12-02T04:19:06.547Z,1037.41
2023-12-02T04:19:51.541Z,1027.79
2023-12-02T04:20:36.443Z,1014.32
2023-12-02T04:21:21.655Z,1017.19
2023-12-02T04:22:06.783Z,1007.14
2023-12-02T04:22:51.634Z,1047.01
2023-12-02T04:23:36.717Z,1029.64
2023-12-02T04:24:22.087Z,1034.34
2023-12-02T04:25:07.603Z,1017.87
2023-12-02T04:25:51.931Z,1026.59
2023-12-02T04:26:37.092Z,1005.23
2023-12-02T04:27:22.113Z,1012.42
2023-12-02T04:28:07.083Z,1003.78
2023-12-02T04:28:52.329Z,1008.58
2023-12-02T04:29:37.052Z,1015.93
2023-12-02T04:30:22.314Z,1019.15
2023-12-02T04:31:07.440Z,995.71
2023-12-02T04:31:52.099Z,984.36
2023-12-02T04:32:38.587Z,903.60
2023-12-02T04:33:22.188Z,903.60
2023-12-02T04:34:07.309Z,232.00
2023-12-02T04:34:52.584Z,286.00
2023-12-02T04:35:37.233Z,326.00
2023-12-02T04:36:22.200Z,435.00
2023-12-02T04:37:07.499Z,1045.72
2023-12-02T04:37:52.968Z,1045.72
2023-12-02T04:38:37.370Z,979.00
2023-12-02T04:39:23.271Z,979.00
2023-12-02T04:40:08.314Z,979.00
2023-12-02T04:40:52.918Z,979.00
2023-12-02T04:41:37.556Z,1118.00
2023-12-02T04:42:22.834Z,1088.99
2023-12-02T04:43:08.472Z,1088.99
2023-12-02T04:43:53.545Z,1088.99
2023-12-02T04:44:38.223Z,1088.99
2023-12-02T04:45:23.078Z,1127.00
2023-12-02T04:46:08.319Z,1112.00
2023-12-02T04:46:53.418Z,1112.00
2023-12-02T04:47:38.096Z,930.00
2023-12-02T04:48:23.421Z,930.00
2023-12-02T04:49:08.673Z,930.00
2023-12-02T04:49:53.443Z,1032.00
2023-12-02T04:50:38.137Z,1114.00
2023-12-02T04:51:23.270Z,1129.00
2023-12-02T04:52:08.990Z,1129.00
2023-12-02T04:52:53.995Z,1129.00
2023-12-02T04:53:39.055Z,1070.34
2023-12-02T04:54:24.138Z,4.00
2023-12-02T04:55:08.763Z,46.00
2023-12-02T04:55:54.142Z,130.00
2023-12-02T04:56:39.517Z,130.00
2023-12-02T04:57:24.123Z,151.00
2023-12-02T04:58:09.434Z,151.00
2023-12-02T04:58:54.655Z,151.00
2023-12-02T04:59:39.437Z,151.00
2023-12-02T05:00:24.351Z,1022.79
2023-12-02T05:01:09.265Z,1047.24
2023-12-02T05:01:54.591Z,1028.64
2023-12-02T05:02:39.883Z,706.76
2023-12-02T05:03:24.449Z,1034.59
2023-12-02T05:04:09.580Z,1029.97
2023-12-02T05:04:54.685Z,1028.64
2023-12-02T05:05:39.677Z,1028.28
2023-12-02T05:06:24.876Z,1030.22
2023-12-02T05:07:09.499Z,1018.84
2023-12-02T05:07:54.908Z,935.30
2023-12-02T05:08:39.529Z,1022.03
2023-12-02T05:09:24.676Z,1005.23
2023-12-02T05:10:09.770Z,993.29
2023-12-02T05:10:55.106Z,995.60
2023-12-02T05:11:39.921Z,1013.70
2023-12-02T05:12:25.133Z,1030.46
2023-12-02T05:13:10.438Z,1016.27
2023-12-02T05:13:54.966Z,372.00
2023-12-02T05:14:40.775Z,1022.99
2023-12-02T05:15:25.761Z,999.98
2023-12-02T05:16:11.222Z,999.98
2023-12-02T05:16:55.340Z,1025.87
2023-12-02T05:17:40.293Z,355.00
2023-12-02T05:18:26.099Z,355.00
2023-12-02T05:19:10.149Z,1010.78
2023-12-02T05:19:55.228Z,1020.84
2023-12-02T05:20:40.510Z,952.21
2023-12-02T05:21:25.907Z,1026.59
2023-12-02T05:22:10.584Z,770.99
2023-12-02T05:22:56.387Z,770.99
2023-12-02T05:23:40.844Z,1023.76
2023-12-02T05:24:25.858Z,449.00
2023-12-02T05:25:10.923Z,444.00
2023-12-02T05:25:55.521Z,1023.42
2023-12-02T05:26:40.891Z,1018.84
2023-12-02T05:27:26.571Z,1054.67
2023-12-02T05:28:10.938Z,378.00
2023-12-02T05:28:56.335Z,232.00
2023-12-02T05:29:41.603Z,229.00
2023-12-02T05:30:26.438Z,221.00
2023-12-02T05:31:11.094Z,272.00
2023-12-02T05:31:56.303Z,381.00
2023-12-02T05:32:41.294Z,546.00
2023-12-02T05:33:26.775Z,1035.46
2023-12-02T05:34:11.650Z,1039.36
2023-12-02T05:34:56.463Z,869.86
2023-12-02T05:35:41.604Z,180.00
2023-12-02T05:36:26.818Z,181.00
2023-12-02T05:37:11.839Z,125.00
2023-12-02T05:37:56.742Z,87.00
2023-12-02T05:38:41.580Z,58.00
2023-12-02T05:39:27.137Z,74.00
2023-12-02T05:40:11.598Z,56.00
2023-12-02T05:40:56.905Z,51.00
2023-12-02T05:41:41.888Z,52.00
2023-12-02T05:42:26.746Z,67.00
2023-12-02T05:43:11.904Z,63.00
2023-12-02T05:43:57.157Z,62.00
2023-12-02T05:44:42.126Z,56.00
2023-12-02T05:45:27.219Z,61.00
2023-12-02T05:46:12.324Z,55.00
2023-12-02T05:46:57.225Z,46.00
2023-12-02T05:47:42.321Z,63.00
2023-12-02T05:48:27.311Z,57.00
2023-12-02T05:49:12.280Z,60.00
2023-12-02T05:49:57.531Z,60.00
2023-12-02T05:50:42.171Z,81.00
2023-12-02T05:51:27.449Z,91.00
2023-12-02T05:52:12.744Z,48.00
2023-12-02T05:52:57.377Z,44.00
2023-12-02T05:53:42.563Z,55.00
2023-12-02T05:54:27.573Z,73.00
2023-12-02T05:55:12.820Z,53.00
2023-12-02T05:55:57.864Z,61.00
2023-12-02T05:56:43.060Z,57.00
2023-12-02T05:57:27.945Z,44.00
2023-12-02T05:58:13.000Z,53.00
2023-12-02T05:58:57.700Z,71.00
2023-12-02T05:59:43.005Z,47.00
2023-12-02T06:00:28.174Z,62.00
2023-12-02T06:01:12.897Z,55.00
2023-12-02T06:01:58.053Z,49.00
2023-12-02T06:02:43.373Z,42.00
2023-12-02T06:03:28.104Z,42.00
2023-12-02T06:04:13.464Z,44.00
2023-12-02T06:04:58.163Z,47.00
2023-12-02T06:05:43.289Z,47.00
2023-12-02T06:06:28.593Z,100.00
2023-12-02T06:07:13.220Z,46.00
2023-12-02T06:07:58.494Z,41.00
2023-12-02T06:08:43.287Z,63.00
2023-12-02T06:09:28.518Z,75.00
2023-12-02T06:10:13.327Z,36.00
2023-12-02T06:10:58.753Z,54.00
2023-12-02T06:11:43.627Z,38.00
2023-12-02T06:12:29.291Z,38.00
2023-12-02T06:13:13.783Z,25.00
2023-12-02T06:13:59.118Z,34.00
2023-12-02T06:14:43.741Z,28.00
2023-12-02T06:15:28.929Z,47.00
2023-12-02T06:16:13.700Z,69.00
2023-12-02T06:16:58.787Z,37.00
2023-12-02T06:17:44.557Z,105.00
2023-12-02T06:18:28.990Z,75.00
2023-12-02T06:19:14.311Z,101.00
2023-12-02T06:19:59.363Z,116.00
2023-12-02T06:20:44.211Z,168.00
2023-12-02T06:21:29.317Z,159.00
2023-12-02T06:22:14.177Z,100.00
2023-12-02T06:22:59.318Z,132.00
2023-12-02T06:23:44.439Z,205.00
2023-12-02T06:24:29.342Z,223.00
2023-12-02T06:25:14.424Z,176.00
2023-12-02T06:25:59.370Z,209.00
2023-12-02T06:26:44.461Z,119.00
2023-12-02T06:27:29.624Z,177.00
2023-12-02T06:28:14.301Z,200.00
2023-12-02T06:28:59.700Z,238.00
2023-12-02T06:29:44.759Z,254.00
2023-12-02T06:30:29.774Z,291.00
2023-12-02T06:31:15.174Z,283.00
2023-12-02T06:31:59.896Z,266.00
2023-12-02T06:32:45.141Z,297.00
2023-12-02T06:33:29.960Z,368.00
2023-12-02T06:34:15.088Z,368.00
2023-12-02T06:35:00.346Z,549.00
2023-12-02T06:35:45.842Z,549.00
2023-12-02T06:36:30.335Z,549.00
2023-12-02T06:37:15.136Z,61.00
2023-12-02T06:38:01.998Z,61.00
2023-12-02T06:38:45.495Z,61.00
2023-12-02T06:39:30.379Z,5.00
2023-12-02T06:40:15.154Z,16.00
2023-12-02T06:41:00.483Z,85.00
2023-12-02T06:41:45.200Z,39.00
2023-12-02T06:42:30.509Z,133.00
2023-12-02T06:43:15.323Z,68.00
2023-12-02T06:44:00.367Z,32.00
2023-12-02T06:44:46.521Z,25.00
2023-12-02T06:45:30.530Z,22.00
2023-12-02T06:46:15.603Z,119.00
2023-12-02T06:47:00.665Z,44.00
2023-12-02T06:47:45.920Z,194.00
2023-12-02T06:48:30.713Z,218.00
2023-12-02T06:49:16.242Z,186.00
2023-12-02T06:50:01.012Z,166.00
2023-12-02T06:50:46.074Z,76.00
2023-12-02T06:51:31.097Z,68.00
2023-12-02T06:52:16.111Z,40.00
2023-12-02T06:53:00.963Z,135.00
2023-12-02T06:53:46.022Z,211.00
2023-12-02T06:54:31.289Z,201.00
2023-12-02T06:56:02.927Z,201.00
2023-12-02T06:56:46.222Z,957.92
2023-12-02T06:57:31.477Z,1004.76
2023-12-02T06:58:16.549Z,985.31
2023-12-02T06:59:01.637Z,993.82
2023-12-02T06:59:46.894Z,995.72
2023-12-02T07:00:31.789Z,995.72
2023-12-02T07:01:18.647Z,888.05
2023-12-02T07:02:02.294Z,888.05
2023-12-02T07:02:46.699Z,888.05
2023-12-02T07:03:32.049Z,888.05
2023-12-02T07:04:17.196Z,888.05
2023-12-02T07:05:02.220Z,888.05
2023-12-02T07:05:47.693Z,888.05
2023-12-02T07:06:32.859Z,888.05
2023-12-02T07:07:17.254Z,888.05
2023-12-02T07:08:01.881Z,321.00
2023-12-02T07:08:47.391Z,321.00
2023-12-02T07:09:32.602Z,321.00
2023-12-02T07:10:17.799Z,321.00
2023-12-02T07:11:02.418Z,924.59
2023-12-02T07:11:47.523Z,936.12
2023-12-02T07:12:33.741Z,936.12
2023-12-02T07:13:19.338Z,936.12
2023-12-02T07:14:04.733Z,936.12
2023-12-02T07:14:49.585Z,936.12
2023-12-02T07:15:32.724Z,902.09
2023-12-02T07:16:20.095Z,902.09
2023-12-02T07:17:04.529Z,902.09
2023-12-02T07:17:48.278Z,902.09
2023-12-02T07:18:33.135Z,902.09
2023-12-02T07:19:18.232Z,902.09
2023-12-02T07:20:03.991Z,902.09
2023-12-02T07:20:48.269Z,902.09
2023-12-02T07:21:33.387Z,902.09
2023-12-02T07:22:18.580Z,902.09
2023-12-02T07:23:03.315Z,902.09
2023-12-02T07:23:48.432Z,902.09
2023-12-02T07:24:33.093Z,920.36
2023-12-02T07:25:19.447Z,920.36
2023-12-02T07:26:04.402Z,920.36
2023-12-02T07:26:48.340Z,920.36
2023-12-02T07:27:33.741Z,920.36
2023-12-02T07:28:19.095Z,920.36
2023-12-02T07:29:05.700Z,920.36
2023-12-02T07:30:33.161Z,357.00
2023-12-02T07:31:18.053Z,166.00
2023-12-02T07:32:03.230Z,34.00
2023-12-02T07:32:48.433Z,35.00
2023-12-02T07:33:33.341Z,178.00
2023-12-02T07:34:18.589Z,480.00
2023-12-02T07:35:03.600Z,264.00
2023-12-02T07:35:48.614Z,321.00
2023-12-02T07:36:34.818Z,321.00
2023-12-02T07:37:19.032Z,321.00
2023-12-02T07:38:04.114Z,321.00
2023-12-02T07:38:48.935Z,321.00
2023-12-02T07:39:33.766Z,1119.99
2023-12-02T07:40:19.076Z,1119.99
2023-12-02T07:41:04.691Z,1119.99
2023-12-02T07:41:49.299Z,1119.99
2023-12-02T07:42:34.412Z,1048.99
2023-12-02T07:43:19.080Z,1054.99
2023-12-02T07:44:04.116Z,1121.99
2023-12-02T07:44:49.973Z,1121.99
2023-12-02T07:45:34.549Z,1121.99
2023-12-02T07:46:19.661Z,1121.99
2023-12-02T07:47:04.720Z,1121.99
2023-12-02T07:47:50.258Z,1121.99
2023-12-02T07:48:34.706Z,1121.99
2023-12-02T07:49:20.618Z,1121.99
2023-12-02T07:50:05.530Z,1121.99
2023-12-02T07:50:50.296Z,1121.99
2023-12-02T07:51:35.108Z,333.99
2023-12-02T07:52:20.082Z,25.00
2023-12-02T07:53:05.253Z,24.00
2023-12-02T07:53:50.229Z,24.00
2023-12-02T07:54:35.116Z,24.00
2023-12-02T07:55:20.622Z,24.00
2023-12-02T07:56:05.542Z,24.00
2023-12-02T07:56:50.652Z,24.00
2023-12-02T07:57:35.777Z,24.00
2023-12-02T07:58:20.648Z,24.00
2023-12-02T07:59:05.913Z,24.00
2023-12-02T07:59:50.553Z,24.00
2023-12-02T08:00:35.601Z,84.00
2023-12-02T08:01:20.572Z,127.00
2023-12-02T08:02:06.244Z,65.00
2023-12-02T08:02:50.872Z,67.00
2023-12-02T08:03:35.770Z,108.00
2023-12-02T08:04:20.792Z,378.99
2023-12-02T08:05:51.113Z,236.00
2023-12-02T08:06:35.859Z,241.00
2023-12-02T08:07:21.418Z,241.00
2023-12-02T08:08:06.470Z,241.00
2023-12-02T08:08:51.431Z,175.00
2023-12-02T08:09:36.361Z,175.00
2023-12-02T08:10:21.707Z,175.00
2023-12-02T08:11:06.527Z,175.00
2023-12-02T08:11:51.606Z,175.00
2023-12-02T08:12:37.119Z,175.00
2023-12-02T08:13:21.903Z,175.00
2023-12-02T08:14:06.994Z,175.00
2023-12-02T08:14:51.815Z,175.00
2023-12-02T08:15:36.776Z,175.00
2023-12-02T08:16:22.005Z,175.00
2023-12-02T08:17:07.271Z,175.00
2023-12-02T08:17:51.830Z,175.00
2023-12-02T08:18:36.811Z,175.00
2023-12-02T08:19:22.239Z,175.00
2023-12-02T08:20:07.540Z,175.00
2023-12-02T08:20:53.052Z,175.00
2023-12-02T08:21:37.096Z,175.00
2023-12-02T08:22:22.768Z,175.00
2023-12-02T08:23:07.059Z,175.00
2023-12-02T08:23:51.868Z,1014.97
2023-12-02T08:24:38.131Z,1014.97
2023-12-02T08:25:22.398Z,1014.97
2023-12-02T08:26:07.276Z,1014.97
2023-12-02T08:26:52.428Z,1014.97
2023-12-02T08:27:37.199Z,1014.97
2023-12-02T08:28:22.271Z,1014.97
2023-12-02T08:29:07.610Z,1014.97
2023-12-02T08:29:52.741Z,1014.97
2023-12-02T08:30:37.588Z,1038.83
2023-12-02T08:31:22.474Z,1048.68
2023-12-02T08:32:07.672Z,1029.64
2023-12-02T08:32:52.637Z,1023.42
2023-12-02T08:33:37.423Z,1018.84
2023-12-02T08:34:22.769Z,1002.85
2023-12-02T08:35:07.649Z,992.87
2023-12-02T08:35:53.252Z,997.63
2023-12-02T08:36:38.030Z,982.47
2023-12-02T08:37:23.335Z,973.37
2023-12-02T08:38:08.028Z,983.41
2023-12-02T08:38:53.396Z,983.41
2023-12-02T08:39:38.072Z,862.20
2023-12-02T08:40:22.980Z,983.41
2023-12-02T08:41:09.890Z,872.89
2023-12-02T08:41:56.923Z,872.89
2023-12-02T08:42:38.620Z,872.89
2023-12-02T08:43:23.726Z,872.89
2023-12-02T08:44:13.986Z,872.89
2023-12-02T08:44:53.649Z,872.89
2023-12-02T08:45:40.012Z,877.82
2023-12-02T08:46:24.649Z,877.82
2023-12-02T08:47:08.939Z,877.82
2023-12-02T08:47:54.030Z,877.82
2023-12-02T08:48:40.342Z,877.82
2023-12-02T08:49:23.759Z,993.82
2023-12-02T08:50:09.079Z,1000.48
2023-12-02T08:50:54.567Z,1000.48
2023-12-02T08:51:41.081Z,1000.48
2023-12-02T08:52:24.693Z,1000.48
2023-12-02T08:53:09.225Z,1000.48
2023-12-02T08:53:54.402Z,1000.48
2023-12-02T08:54:40.401Z,1000.48
2023-12-02T08:55:24.544Z,1000.48
2023-12-02T08:56:10.304Z,1000.48
2023-12-02T08:56:54.746Z,1000.48
2023-12-02T08:57:39.476Z,1000.48
2023-12-02T08:58:24.797Z,1000.48
2023-12-02T08:59:09.919Z,1000.48
2023-12-02T08:59:54.459Z,1003.81
2023-12-02T09:00:39.463Z,998.87
2023-12-02T09:01:24.999Z,998.87
2023-12-02T09:02:10.105Z,998.87
2023-12-02T09:02:55.146Z,998.87
2023-12-02T09:03:40.166Z,998.87
2023-12-02T09:04:25.106Z,998.87
2023-12-02T09:05:10.179Z,998.87
2023-12-02T09:05:55.015Z,998.87
2023-12-02T09:06:41.771Z,998.87
2023-12-02T09:07:25.452Z,998.87
2023-12-02T09:08:10.689Z,998.87
2023-12-02T09:09:40.525Z,1052.95
2023-12-02T09:10:25.160Z,1032.40
2023-12-02T09:11:10.298Z,1017.19
2023-12-02T09:11:56.099Z,1005.70
2023-12-02T09:12:40.326Z,995.72
2023-12-02T09:13:26.059Z,995.72
2023-12-02T09:14:10.848Z,995.72
2023-12-02T09:14:55.723Z,995.72
2023-12-02T09:15:41.357Z,995.72
2023-12-02T09:16:25.721Z,995.72
2023-12-02T09:17:10.929Z,995.72
2023-12-02T09:17:56.548Z,995.72
2023-12-02T09:18:41.057Z,995.72
2023-12-02T09:19:28.291Z,995.72
2023-12-02T09:20:13.356Z,995.72
2023-12-02T09:20:56.447Z,995.72
2023-12-02T09:21:41.641Z,995.72